Siauliai, Lithuania
Current Conditions -  °F | °C
As of 8:50 AM on Friday 19 Dec 2014 (Local Time) from EYSA Reporting Station
Overcast Overcast  
Wind Chill: 38°   Ceiling: 600
Heat Index: 45°   Visibility: 5mi
Dew Point: 45°   Wind: 14mph
Humidity: 100%   Direction: 230°SW
Pressure: 29.29"   Gusts: NA
Location:  55.93°N, 23.32°E
Report Text: EYSA 190550Z 23012KT 8000 OVC006 07/07 Q0992 R14L/29//95 R14R/29//95
Loading
Personal Weather Stations






























Interactive Weather Map New forecast layout! Learn more

10-Day Weather Forecast

Advertisements
Track Severe Weather on mobile